Haymount, North Carolina
Current Conditions -  °F | °C
As of 2:53 PM on Friday 19 Dec 2014 (Local Time) from KFAY Reporting Station
Clear Clear  
Wind Chill: 58°   Ceiling: Unl
Heat Index: 58°   Visibility: 10mi
Dew Point: 22°   Wind: 5mph
Humidity: 25%   Direction: 360°N
Pressure: 30.11"   Gusts: NA
Location:  35.0522°N, 78.906°W
Report Text: KFAY 191953Z AUTO 36004KT 10SM CLR 14/M06 A3011 RMK AO2 SLP191 T01441056
Loading
Personal Weather Stations






























Interactive Weather Map New forecast layout! Learn more

10-Day Weather Forecast

Advertisements
Track Severe Weather on mobile